createdAt,value
2018-03-15T00:00:01.451Z,5.10
2018-03-15T00:02:29.762Z,5.00
2018-03-15T00:04:58.081Z,5.00
2018-03-15T00:07:26.553Z,5.00
2018-03-15T00:09:54.143Z,5.00
2018-03-15T00:12:23.431Z,5.00
2018-03-15T00:14:50.960Z,5.10
2018-03-15T00:17:18.425Z,5.00
2018-03-15T00:19:45.994Z,4.90
2018-03-15T00:22:13.589Z,4.90
2018-03-15T00:24:41.083Z,5.00
2018-03-15T00:27:08.605Z,4.90
2018-03-15T00:29:36.228Z,4.90
2018-03-15T00:32:04.626Z,4.90
2018-03-15T00:34:33.706Z,4.90
2018-03-15T00:37:01.224Z,4.80
2018-03-15T00:39:28.720Z,4.80
2018-03-15T00:41:57.063Z,4.90
2018-03-15T00:44:24.603Z,5.00
2018-03-15T00:46:54.059Z,5.10
2018-03-15T00:49:21.554Z,5.10
2018-03-15T00:51:49.104Z,5.10
2018-03-15T00:54:17.483Z,5.20
2018-03-15T00:56:45.010Z,5.20
2018-03-15T00:59:12.832Z,5.30
2018-03-15T01:01:40.408Z,5.30
2018-03-15T01:04:07.902Z,5.40
2018-03-15T01:06:35.437Z,5.50
2018-03-15T01:09:03.802Z,5.50
2018-03-15T01:11:32.308Z,5.50
2018-03-15T01:13:59.819Z,5.50
2018-03-15T01:16:27.408Z,5.50
2018-03-15T01:18:54.949Z,5.60
2018-03-15T01:21:22.440Z,5.60
2018-03-15T01:23:52.904Z,5.60
2018-03-15T01:26:20.398Z,5.60
2018-03-15T01:28:47.976Z,5.60
2018-03-15T01:31:20.012Z,5.60
2018-03-15T01:33:51.405Z,5.60
2018-03-15T01:36:19.707Z,5.50
2018-03-15T01:38:47.992Z,5.50
2018-03-15T01:41:15.592Z,5.40
2018-03-15T01:43:43.120Z,5.50
2018-03-15T01:46:11.806Z,5.50
2018-03-15T01:48:40.344Z,5.50
2018-03-15T01:51:08.636Z,5.40
2018-03-15T01:53:36.964Z,5.40
2018-03-15T01:56:04.500Z,5.40
2018-03-15T01:58:32.961Z,5.40
2018-03-15T02:01:00.460Z,5.40
2018-03-15T02:03:28.005Z,5.50
2018-03-15T02:05:57.856Z,5.60
2018-03-15T02:08:25.445Z,5.70
2018-03-15T02:10:52.939Z,5.60
2018-03-15T02:13:21.357Z,5.70
2018-03-15T02:15:48.932Z,5.70
2018-03-15T02:18:16.448Z,5.70
2018-03-15T02:20:44.795Z,5.60
2018-03-15T02:23:12.557Z,5.60
2018-03-15T02:25:40.096Z,5.60
2018-03-15T02:28:07.641Z,5.50
2018-03-15T02:30:35.996Z,5.50
2018-03-15T02:33:03.533Z,5.50
2018-03-15T02:35:31.306Z,5.50
2018-03-15T02:37:58.847Z,5.60
2018-03-15T02:40:26.333Z,5.70
2018-03-15T02:42:53.839Z,5.60
2018-03-15T02:45:21.403Z,5.60
2018-03-15T02:47:49.904Z,5.50
2018-03-15T02:50:17.484Z,5.50
2018-03-15T02:52:45.008Z,5.50
2018-03-15T02:55:12.568Z,5.50
2018-03-15T02:57:40.080Z,5.50
2018-03-15T03:00:07.624Z,5.50
2018-03-15T03:02:35.981Z,5.50
2018-03-15T03:05:03.501Z,5.50
2018-03-15T03:07:30.993Z,5.50
2018-03-15T03:09:58.564Z,5.50
2018-03-15T03:12:26.097Z,5.50
2018-03-15T03:14:55.301Z,5.50
2018-03-15T03:17:22.903Z,5.60
2018-03-15T03:19:51.853Z,5.60
2018-03-15T03:22:19.361Z,5.50
2018-03-15T03:24:46.950Z,5.50
2018-03-15T03:27:14.477Z,5.50
2018-03-15T03:29:42.028Z,5.50
2018-03-15T03:32:10.385Z,5.60
2018-03-15T03:34:38.664Z,5.70
2018-03-15T03:37:06.178Z,5.60
2018-03-15T03:39:33.715Z,5.70
2018-03-15T03:42:01.869Z,5.80
2018-03-15T03:44:29.387Z,5.70
2018-03-15T03:46:57.887Z,5.80
2018-03-15T03:49:26.224Z,5.80
2018-03-15T03:51:53.761Z,5.80
2018-03-15T03:54:21.512Z,5.80
2018-03-15T03:56:49.422Z,5.90
2018-03-15T03:59:16.960Z,6.00
2018-03-15T04:01:44.521Z,5.90
2018-03-15T04:04:12.019Z,5.90
2018-03-15T04:06:40.357Z,5.80
2018-03-15T04:09:07.867Z,5.80
2018-03-15T04:11:36.184Z,5.80
2018-03-15T04:14:03.738Z,5.80
2018-03-15T04:16:31.874Z,5.80
2018-03-15T04:18:59.383Z,5.80
2018-03-15T04:21:26.908Z,5.90
2018-03-15T04:23:54.432Z,5.90
2018-03-15T04:26:22.731Z,5.90
2018-03-15T04:28:50.262Z,5.90
2018-03-15T04:31:17.856Z,5.90
2018-03-15T04:33:45.388Z,6.00
2018-03-15T04:36:14.524Z,6.10
2018-03-15T04:38:42.037Z,6.00
2018-03-15T04:41:10.322Z,6.00
2018-03-15T04:43:38.588Z,6.00
2018-03-15T04:46:06.152Z,5.90
2018-03-15T04:48:34.427Z,5.90
2018-03-15T04:51:03.906Z,5.90
2018-03-15T04:53:31.867Z,5.90
2018-03-15T04:56:02.773Z,5.90
2018-03-15T04:58:31.383Z,5.80
2018-03-15T05:00:58.871Z,5.90
2018-03-15T05:03:28.963Z,5.90
2018-03-15T05:05:56.484Z,5.90
2018-03-15T05:08:25.466Z,6.00
2018-03-15T05:10:53.013Z,6.00
2018-03-15T05:13:24.024Z,6.00
2018-03-15T05:15:53.277Z,5.90
2018-03-15T05:18:29.693Z,5.90
2018-03-15T05:20:57.987Z,5.70
2018-03-15T05:23:25.485Z,5.70
2018-03-15T05:25:54.225Z,5.70
2018-03-15T05:28:22.659Z,5.20
2018-03-15T05:30:50.608Z,5.10
2018-03-15T05:33:18.120Z,5.10
2018-03-15T05:35:45.641Z,5.10
2018-03-15T05:38:13.139Z,5.30
2018-03-15T05:40:41.515Z,5.40
2018-03-15T05:43:09.084Z,5.30
2018-03-15T05:45:36.635Z,5.40
2018-03-15T05:48:04.840Z,5.40
2018-03-15T05:50:32.358Z,5.30
2018-03-15T05:53:00.852Z,5.20
2018-03-15T05:55:28.374Z,5.30
2018-03-15T05:57:55.940Z,5.20
2018-03-15T06:00:24.322Z,5.20
2018-03-15T06:02:53.028Z,5.40
2018-03-15T06:05:20.571Z,5.50
2018-03-15T06:07:49.229Z,5.80
2018-03-15T06:10:16.741Z,5.70
2018-03-15T06:12:44.336Z,5.90
2018-03-15T06:15:11.850Z,6.00
2018-03-15T06:17:39.406Z,6.00
2018-03-15T06:20:20.464Z,6.00
2018-03-15T06:23:06.013Z,6.00
2018-03-15T06:25:33.604Z,6.00
2018-03-15T06:34:03.418Z,6.00
2018-03-15T06:36:30.899Z,6.10
2018-03-15T06:38:58.413Z,6.10
2018-03-15T06:41:25.889Z,6.30
2018-03-15T06:43:53.393Z,6.50
2018-03-15T06:46:20.870Z,6.60
2018-03-15T06:48:48.385Z,6.70
2018-03-15T06:51:15.861Z,6.70
2018-03-15T06:53:43.368Z,6.70
2018-03-15T06:56:10.856Z,6.80
2018-03-15T06:58:38.374Z,6.90
2018-03-15T07:01:06.628Z,6.90
2018-03-15T07:03:34.105Z,6.80
2018-03-15T07:06:02.387Z,6.80
2018-03-15T07:08:30.632Z,6.80
2018-03-15T07:10:58.149Z,6.80
2018-03-15T07:13:25.628Z,6.80
2018-03-15T07:15:53.105Z,6.90
2018-03-15T07:18:21.452Z,6.90
2018-03-15T07:20:48.962Z,6.90
2018-03-15T07:23:16.435Z,6.90
2018-03-15T07:25:44.698Z,6.90
2018-03-15T07:28:12.943Z,7.00
2018-03-15T07:30:40.487Z,7.00
2018-03-15T07:33:07.968Z,7.00
2018-03-15T07:35:36.836Z,6.90
2018-03-15T07:38:04.373Z,7.00
2018-03-15T07:40:31.878Z,7.10
2018-03-15T07:42:59.370Z,7.10
2018-03-15T07:45:26.930Z,7.10
2018-03-15T07:47:54.457Z,7.20
2018-03-15T07:50:21.977Z,7.30
2018-03-15T07:52:49.777Z,7.40
2018-03-15T07:55:17.475Z,7.40
2018-03-15T07:57:45.724Z,7.60
2018-03-15T08:00:13.271Z,7.60
2018-03-15T08:02:40.770Z,7.60
2018-03-15T08:05:09.083Z,7.80
2018-03-15T08:07:36.563Z,7.80
2018-03-15T08:10:05.217Z,7.80
2018-03-15T08:12:32.737Z,7.90
2018-03-15T08:15:00.209Z,7.90
2018-03-15T08:17:27.724Z,8.10
2018-03-15T08:19:55.206Z,8.00
2018-03-15T08:22:22.770Z,8.10
2018-03-15T08:24:51.182Z,8.20
2018-03-15T08:27:19.142Z,8.20
2018-03-15T08:29:46.619Z,8.30
2018-03-15T08:32:14.098Z,8.30
2018-03-15T08:34:41.609Z,8.40
2018-03-15T08:37:09.894Z,8.60
2018-03-15T08:39:38.223Z,8.60
2018-03-15T08:42:05.694Z,8.60
2018-03-15T08:44:33.202Z,8.70
2018-03-15T08:47:01.110Z,8.90
2018-03-15T08:49:28.618Z,9.00
2018-03-15T08:51:56.095Z,9.10
2018-03-15T08:54:23.635Z,9.30
2018-03-15T08:56:51.164Z,9.40
2018-03-15T08:59:18.703Z,9.30
2018-03-15T09:01:46.866Z,9.40
2018-03-15T09:04:14.386Z,9.40
2018-03-15T09:06:41.904Z,9.40
2018-03-15T09:09:09.382Z,9.30
2018-03-15T09:11:37.663Z,9.30
2018-03-15T09:14:05.172Z,9.30
2018-03-15T09:16:32.699Z,9.20
2018-03-15T09:19:00.600Z,9.20
2018-03-15T09:21:28.108Z,9.20
2018-03-15T09:23:56.511Z,9.20
2018-03-15T09:26:23.995Z,9.20
2018-03-15T09:28:51.516Z,9.10
2018-03-15T09:31:19.009Z,9.10
2018-03-15T09:33:46.527Z,9.20
2018-03-15T09:36:14.075Z,9.40
2018-03-15T09:38:41.702Z,9.50
2018-03-15T09:41:09.221Z,9.80
2018-03-15T09:43:36.769Z,9.90
2018-03-15T09:46:04.385Z,10.00
2018-03-15T09:48:31.883Z,10.10
2018-03-15T09:51:00.226Z,10.20
2018-03-15T09:53:28.077Z,10.10
2018-03-15T09:55:55.569Z,10.10
2018-03-15T09:58:23.103Z,10.20
2018-03-15T10:00:50.696Z,10.10
2018-03-15T10:03:18.955Z,10.20
2018-03-15T10:05:46.541Z,10.20
2018-03-15T10:08:13.976Z,10.10
2018-03-15T10:10:45.598Z,10.30
2018-03-15T10:13:13.099Z,10.40
2018-03-15T10:15:41.439Z,10.60
2018-03-15T10:18:08.935Z,10.60
2018-03-15T10:20:37.715Z,10.80
2018-03-15T10:23:05.216Z,10.80
2018-03-15T10:25:32.749Z,10.70
2018-03-15T10:28:01.054Z,10.90
2018-03-15T10:30:28.553Z,10.90
2018-03-15T10:33:01.764Z,11.00
2018-03-15T10:35:29.294Z,11.10
2018-03-15T10:37:56.850Z,11.10
2018-03-15T10:40:24.377Z,11.10
2018-03-15T10:42:51.906Z,11.10
2018-03-15T10:45:20.267Z,11.10
2018-03-15T10:47:47.940Z,11.10
2018-03-15T10:50:16.086Z,11.10
2018-03-15T10:52:43.629Z,11.10
2018-03-15T10:55:11.209Z,11.10
2018-03-15T10:57:39.485Z,11.10
2018-03-15T11:00:07.152Z,11.20
2018-03-15T11:02:41.208Z,11.30
2018-03-15T11:05:14.311Z,11.30
2018-03-15T11:07:41.887Z,11.30
2018-03-15T11:10:09.411Z,11.30
2018-03-15T11:12:37.572Z,11.30
2018-03-15T11:15:05.912Z,11.20
2018-03-15T11:17:33.430Z,11.20
2018-03-15T11:20:00.942Z,11.20
2018-03-15T11:22:28.463Z,11.20
2018-03-15T11:24:55.971Z,11.20
2018-03-15T11:27:23.540Z,11.20
2018-03-15T11:29:51.082Z,11.10
2018-03-15T11:32:18.615Z,10.90
2018-03-15T11:34:46.144Z,10.90
2018-03-15T11:37:17.558Z,10.90
2018-03-15T11:39:45.969Z,10.80
2018-03-15T11:42:13.482Z,10.80
2018-03-15T11:44:42.946Z,10.70
2018-03-15T11:47:10.456Z,10.60
2018-03-15T11:49:38.003Z,10.50
2018-03-15T11:52:05.537Z,10.40
2018-03-15T11:54:33.071Z,10.30
2018-03-15T11:57:01.367Z,10.10
2018-03-15T11:59:28.869Z,10.10
2018-03-15T12:01:56.455Z,10.10
2018-03-15T12:04:23.993Z,10.10
2018-03-15T12:06:51.758Z,10.00
2018-03-15T12:09:20.083Z,9.70
2018-03-15T12:11:47.583Z,9.70
2018-03-15T12:14:15.081Z,9.80
2018-03-15T12:16:43.407Z,9.60
2018-03-15T12:19:10.887Z,9.60
2018-03-15T12:21:38.395Z,9.60
2018-03-15T12:24:06.653Z,9.60
2018-03-15T12:26:34.171Z,9.60
2018-03-15T12:29:01.665Z,9.50
2018-03-15T12:31:29.177Z,9.50
2018-03-15T12:33:56.694Z,9.50
2018-03-15T12:36:25.573Z,9.40
2018-03-15T12:38:53.082Z,9.40
2018-03-15T12:41:20.581Z,9.40
2018-03-15T12:43:48.064Z,9.40
2018-03-15T12:46:16.339Z,9.40
2018-03-15T12:48:44.639Z,9.50
2018-03-15T12:51:12.281Z,9.50
2018-03-15T12:53:39.790Z,9.60
2018-03-15T12:56:08.059Z,9.90
2018-03-15T12:58:35.567Z,9.80
2018-03-15T13:01:03.858Z,9.90
2018-03-15T13:03:31.369Z,9.80
2018-03-15T13:05:58.861Z,9.90
2018-03-15T13:08:27.099Z,9.80
2018-03-15T13:10:54.840Z,9.80
2018-03-15T13:13:22.407Z,9.80
2018-03-15T13:15:50.345Z,9.70
2018-03-15T13:18:17.855Z,9.70
2018-03-15T13:20:45.347Z,9.70
2018-03-15T13:23:12.880Z,9.70
2018-03-15T13:25:40.705Z,9.80
2018-03-15T13:28:08.238Z,9.90
2018-03-15T13:30:36.087Z,9.90
2018-03-15T13:33:03.559Z,9.90
2018-03-15T13:35:31.110Z,10.00
2018-03-15T13:37:58.598Z,10.10
2018-03-15T13:40:26.349Z,10.10
2018-03-15T13:42:53.925Z,10.00
2018-03-15T13:45:21.402Z,9.90
2018-03-15T13:47:49.782Z,9.90
2018-03-15T13:50:17.267Z,9.90
2018-03-15T13:52:45.578Z,9.90
2018-03-15T13:55:13.060Z,9.90
2018-03-15T13:57:40.564Z,9.90
2018-03-15T14:00:08.052Z,10.00
2018-03-15T14:02:35.634Z,10.00
2018-03-15T14:05:03.137Z,9.90
2018-03-15T14:07:30.709Z,9.80
2018-03-15T14:09:58.189Z,9.80
2018-03-15T14:12:27.459Z,9.80
2018-03-15T14:14:54.944Z,9.90
2018-03-15T14:17:23.383Z,9.70
2018-03-15T14:19:50.879Z,9.70
2018-03-15T14:22:18.374Z,9.70
2018-03-15T14:24:46.917Z,9.70
2018-03-15T14:27:16.015Z,9.70
2018-03-15T14:29:47.877Z,9.70
2018-03-15T14:32:22.540Z,9.60
2018-03-15T14:34:50.057Z,9.60
2018-03-15T14:37:17.564Z,9.60
2018-03-15T14:39:45.079Z,9.70
2018-03-15T14:42:12.555Z,9.60
2018-03-15T14:44:40.109Z,9.70
2018-03-15T14:47:08.346Z,9.70
2018-03-15T14:49:35.858Z,9.60
2018-03-15T14:52:03.871Z,9.70
2018-03-15T14:54:31.390Z,9.70
2018-03-15T14:56:59.386Z,9.70
2018-03-15T14:59:26.915Z,9.70
2018-03-15T15:01:54.415Z,9.80
2018-03-15T15:04:21.886Z,9.70
2018-03-15T15:06:49.835Z,9.70
2018-03-15T15:09:17.336Z,9.60
2018-03-15T15:11:46.591Z,9.50
2018-03-15T15:14:14.786Z,9.50
2018-03-15T15:16:42.267Z,9.40
2018-03-15T15:19:09.794Z,9.50
2018-03-15T15:21:38.221Z,9.40
2018-03-15T15:24:05.766Z,9.30
2018-03-15T15:26:34.860Z,9.30
2018-03-15T15:29:03.166Z,9.30
2018-03-15T15:31:30.682Z,9.20
2018-03-15T15:33:58.977Z,9.30
2018-03-15T15:36:26.402Z,9.30
2018-03-15T15:39:09.272Z,9.30
2018-03-15T15:41:36.880Z,9.30
2018-03-15T15:44:04.359Z,9.30
2018-03-15T15:46:36.780Z,9.30
2018-03-15T15:49:04.301Z,9.30
2018-03-15T15:51:32.546Z,9.40
2018-03-15T15:54:00.096Z,9.30
2018-03-15T15:56:27.656Z,9.40
2018-03-15T15:58:55.298Z,9.40
2018-03-15T16:01:23.586Z,9.20
2018-03-15T16:03:51.974Z,9.20
2018-03-15T16:06:21.063Z,9.10
2018-03-15T16:08:49.354Z,9.10
2018-03-15T16:11:16.914Z,9.10
2018-03-15T16:13:44.435Z,9.10
2018-03-15T16:16:12.984Z,9.10
2018-03-15T16:18:40.542Z,9.10
2018-03-15T16:21:08.069Z,9.10
2018-03-15T16:23:36.347Z,9.00
2018-03-15T16:26:03.892Z,9.00
2018-03-15T16:28:32.391Z,9.20
2018-03-15T16:30:59.906Z,9.00
2018-03-15T16:33:28.192Z,8.90
2018-03-15T16:35:56.854Z,8.90
2018-03-15T16:38:24.351Z,8.80
2018-03-15T16:40:53.294Z,8.40
2018-03-15T16:43:20.800Z,8.40
2018-03-15T16:45:48.398Z,8.30
2018-03-15T16:48:16.676Z,8.30
2018-03-15T16:50:44.171Z,8.30
2018-03-15T16:53:12.497Z,8.20
2018-03-15T16:55:40.255Z,8.20
2018-03-15T16:58:07.795Z,8.20
2018-03-15T17:00:35.343Z,8.10
2018-03-15T17:03:02.915Z,8.10
2018-03-15T17:05:30.380Z,8.00
2018-03-15T17:07:57.916Z,8.20
2018-03-15T17:10:25.411Z,8.10
2018-03-15T17:12:52.895Z,8.10
2018-03-15T17:15:20.415Z,8.10
2018-03-15T17:17:47.915Z,8.00
2018-03-15T17:20:15.502Z,7.90
2018-03-15T17:22:43.135Z,7.80
2018-03-15T17:25:10.667Z,7.80
2018-03-15T17:27:39.001Z,7.60
2018-03-15T17:30:07.283Z,7.60
2018-03-15T17:32:34.867Z,7.50
2018-03-15T17:35:02.388Z,7.50
2018-03-15T17:37:29.909Z,7.40
2018-03-15T17:39:57.409Z,7.30
2018-03-15T17:42:24.939Z,7.30
2018-03-15T17:44:52.506Z,7.30
2018-03-15T17:47:20.794Z,7.30
2018-03-15T17:49:48.372Z,7.30
2018-03-15T17:52:16.702Z,7.20
2018-03-15T17:54:44.515Z,7.20
2018-03-15T17:57:12.029Z,7.20
2018-03-15T17:59:39.626Z,7.20
2018-03-15T18:02:07.171Z,7.20
2018-03-15T18:04:34.741Z,7.20
2018-03-15T18:07:02.274Z,7.10
2018-03-15T18:09:29.775Z,7.20
2018-03-15T18:11:57.376Z,7.00
2018-03-15T18:14:24.894Z,7.00
2018-03-15T18:16:53.186Z,6.90
2018-03-15T18:19:21.509Z,6.90
2018-03-15T18:21:49.045Z,6.90
2018-03-15T18:24:16.532Z,6.90
2018-03-15T18:26:44.086Z,6.80
2018-03-15T18:29:11.599Z,6.70
2018-03-15T18:31:39.095Z,6.80
2018-03-15T18:34:06.611Z,6.70
2018-03-15T18:36:34.144Z,6.70
2018-03-15T18:39:01.682Z,6.70
2018-03-15T18:41:29.207Z,6.70
2018-03-15T18:43:56.718Z,6.60
2018-03-15T18:46:24.262Z,6.60
2018-03-15T18:48:51.763Z,6.50
2018-03-15T18:51:19.291Z,6.60
2018-03-15T18:53:46.797Z,6.60
2018-03-15T18:56:14.315Z,6.60
2018-03-15T18:58:41.839Z,6.60
2018-03-15T19:01:12.615Z,6.70
2018-03-15T19:03:36.885Z,6.70
2018-03-15T19:06:04.408Z,6.60
2018-03-15T19:08:31.950Z,6.60
2018-03-15T19:10:59.455Z,6.70
2018-03-15T19:13:26.947Z,6.80
2018-03-15T19:15:55.238Z,6.80
2018-03-15T19:18:23.518Z,6.80
2018-03-15T19:20:51.035Z,6.70
2018-03-15T19:23:18.521Z,6.80
2018-03-15T19:25:46.079Z,6.70
2018-03-15T19:28:13.704Z,6.80
2018-03-15T19:30:42.001Z,6.80
2018-03-15T19:33:10.316Z,6.80
2018-03-15T19:35:37.829Z,6.80
2018-03-15T19:38:05.360Z,6.80
2018-03-15T19:40:32.858Z,6.70
2018-03-15T19:43:00.430Z,6.70
2018-03-15T19:45:28.009Z,6.80
2018-03-15T19:47:56.272Z,6.80
2018-03-15T19:50:23.790Z,6.80
2018-03-15T19:52:51.324Z,6.80
2018-03-15T19:55:18.836Z,6.70
2018-03-15T19:57:46.395Z,6.70
2018-03-15T20:00:13.902Z,6.70
2018-03-15T20:02:42.373Z,6.70
2018-03-15T20:05:10.636Z,6.70
2018-03-15T20:07:38.115Z,6.70
2018-03-15T20:10:05.664Z,6.70
2018-03-15T20:12:33.193Z,6.70
2018-03-15T20:15:01.484Z,6.70
2018-03-15T20:17:29.758Z,6.70
2018-03-15T20:19:57.277Z,6.70
2018-03-15T20:22:30.292Z,6.70
2018-03-15T20:24:57.803Z,6.70
2018-03-15T20:27:31.717Z,6.70
2018-03-15T20:29:59.228Z,6.70
2018-03-15T20:32:32.267Z,6.80
2018-03-15T20:34:59.791Z,6.80
2018-03-15T20:37:27.300Z,6.80
2018-03-15T20:40:00.523Z,6.80
2018-03-15T20:42:28.032Z,6.80
2018-03-15T20:44:55.538Z,6.80
2018-03-15T20:47:28.710Z,6.80
2018-03-15T20:49:56.990Z,6.70
2018-03-15T20:52:25.243Z,6.80
2018-03-15T20:54:52.759Z,6.80
2018-03-15T20:57:21.027Z,6.80
2018-03-15T20:59:48.535Z,6.80
2018-03-15T21:02:16.063Z,6.80
2018-03-15T21:04:43.550Z,6.90
2018-03-15T21:07:11.870Z,6.80
2018-03-15T21:09:39.351Z,6.80
2018-03-15T21:12:06.866Z,6.80
2018-03-15T21:14:34.371Z,6.70
2018-03-15T21:17:01.859Z,6.80
2018-03-15T21:19:29.391Z,6.80
2018-03-15T21:21:57.646Z,6.80
2018-03-15T21:24:25.156Z,6.80
2018-03-15T21:26:52.855Z,6.80
2018-03-15T21:29:21.143Z,6.70
2018-03-15T21:31:48.647Z,6.70
2018-03-15T21:34:16.146Z,6.70
2018-03-15T21:36:43.659Z,6.70
2018-03-15T21:39:11.165Z,6.70
2018-03-15T21:41:38.696Z,6.70
2018-03-15T21:44:06.178Z,6.70
2018-03-15T21:46:33.696Z,6.70
2018-03-15T21:49:01.203Z,6.90
2018-03-15T21:51:28.682Z,6.90
2018-03-15T21:53:56.195Z,6.70
2018-03-15T21:56:23.706Z,6.60
2018-03-15T21:58:51.228Z,6.50
2018-03-15T22:01:18.708Z,6.50
2018-03-15T22:03:46.194Z,6.40
2018-03-15T22:06:13.703Z,6.40
2018-03-15T22:08:41.186Z,6.50
2018-03-15T22:11:08.704Z,6.50
2018-03-15T22:13:36.197Z,6.50
2018-03-15T22:16:04.491Z,6.60
2018-03-15T22:18:32.752Z,6.60
2018-03-15T22:21:00.231Z,6.50
2018-03-15T22:23:27.748Z,6.50
2018-03-15T22:25:55.229Z,6.40
2018-03-15T22:28:22.748Z,6.50
2018-03-15T22:30:51.044Z,6.40
2018-03-15T22:33:19.300Z,6.30
2018-03-15T22:35:46.815Z,6.30
2018-03-15T22:38:15.063Z,6.20
2018-03-15T22:40:42.675Z,6.20
2018-03-15T22:43:10.746Z,6.20
2018-03-15T22:45:39.007Z,6.20
2018-03-15T22:48:07.330Z,6.20
2018-03-15T22:50:35.579Z,6.20
2018-03-15T22:53:03.087Z,6.20
2018-03-15T22:55:31.371Z,6.50
2018-03-15T22:57:58.853Z,6.50
2018-03-15T23:00:27.139Z,6.70
2018-03-15T23:02:55.387Z,6.70
2018-03-15T23:05:22.862Z,6.70
2018-03-15T23:07:50.371Z,6.60
2018-03-15T23:10:18.639Z,6.50
2018-03-15T23:12:46.126Z,6.60
2018-03-15T23:15:14.406Z,6.60
2018-03-15T23:17:41.920Z,6.60
2018-03-15T23:20:09.458Z,6.60
2018-03-15T23:22:36.939Z,6.70
2018-03-15T23:25:05.187Z,6.70
2018-03-15T23:27:32.715Z,6.70
2018-03-15T23:30:00.194Z,6.70
2018-03-15T23:32:27.694Z,6.60
2018-03-15T23:34:55.180Z,6.60
2018-03-15T23:37:22.714Z,6.60
2018-03-15T23:39:50.221Z,6.70
2018-03-15T23:42:17.727Z,6.60
2018-03-15T23:44:45.235Z,6.60
2018-03-15T23:47:12.728Z,6.60
2018-03-15T23:49:40.259Z,6.70
2018-03-15T23:52:07.764Z,6.70
2018-03-15T23:54:35.278Z,6.70
2018-03-15T23:57:02.761Z,6.70
2018-03-15T23:59:30.278Z,6.70
